sensor_id;sensor_type;location;lat;lon;timestamp;temperature;humidity
4548;DHT22;2286;51.570;7.090;2023-02-01T00:01:30;5.10;99.90
4548;DHT22;2286;51.570;7.090;2023-02-01T00:03:57;5.20;99.90
4548;DHT22;2286;51.570;7.090;2023-02-01T00:06:24;5.20;99.90
4548;DHT22;2286;51.570;7.090;2023-02-01T00:08:52;5.20;99.90
4548;DHT22;2286;51.570;7.090;2023-02-01T00:11:20;5.20;99.90
4548;DHT22;2286;51.570;7.090;2023-02-01T00:13:47;5.30;99.90
4548;DHT22;2286;51.570;7.090;2023-02-01T00:16:17;5.30;99.90
4548;DHT22;2286;51.570;7.090;2023-02-01T00:18:47;5.40;99.90
4548;DHT22;2286;51.570;7.090;2023-02-01T00:21:16;5.40;99.90
4548;DHT22;2286;51.570;7.090;2023-02-01T00:23:44;5.40;99.90
4548;DHT22;2286;51.570;7.090;2023-02-01T00:26:14;5.40;1.00
4548;DHT22;2286;51.570;7.090;2023-02-01T00:28:41;5.40;1.00
4548;DHT22;2286;51.570;7.090;2023-02-01T00:31:08;5.40;99.90
4548;DHT22;2286;51.570;7.090;2023-02-01T00:33:35;5.40;1.00
4548;DHT22;2286;51.570;7.090;2023-02-01T00:36:05;5.40;1.00
4548;DHT22;2286;51.570;7.090;2023-02-01T00:38:33;5.40;1.00
4548;DHT22;2286;51.570;7.090;2023-02-01T00:41:06;5.40;1.00
4548;DHT22;2286;51.570;7.090;2023-02-01T00:43:34;5.40;1.00
4548;DHT22;2286;51.570;7.090;2023-02-01T00:46:01;5.50;1.00
4548;DHT22;2286;51.570;7.090;2023-02-01T00:48:28;5.50;1.00
4548;DHT22;2286;51.570;7.090;2023-02-01T00:50:59;5.50;99.90
4548;DHT22;2286;51.570;7.090;2023-02-01T00:53:27;5.50;1.00
4548;DHT22;2286;51.570;7.090;2023-02-01T00:55:54;5.50;1.00
4548;DHT22;2286;51.570;7.090;2023-02-01T00:58:22;5.60;99.90
4548;DHT22;2286;51.570;7.090;2023-02-01T01:00:49;5.60;1.00
4548;DHT22;2286;51.570;7.090;2023-02-01T01:03:16;5.60;1.00
4548;DHT22;2286;51.570;7.090;2023-02-01T01:05:46;5.60;1.00
4548;DHT22;2286;51.570;7.090;2023-02-01T01:08:14;5.60;1.00
4548;DHT22;2286;51.570;7.090;2023-02-01T01:10:42;5.60;99.90
4548;DHT22;2286;51.570;7.090;2023-02-01T01:13:10;5.70;99.90
4548;DHT22;2286;51.570;7.090;2023-02-01T01:15:38;5.70;99.90
4548;DHT22;2286;51.570;7.090;2023-02-01T01:18:05;5.70;99.90
4548;DHT22;2286;51.570;7.090;2023-02-01T01:20:34;5.70;99.90
4548;DHT22;2286;51.570;7.090;2023-02-01T01:23:02;5.70;1.00
4548;DHT22;2286;51.570;7.090;2023-02-01T01:25:29;5.70;99.90
4548;DHT22;2286;51.570;7.090;2023-02-01T01:27:57;5.70;99.90
4548;DHT22;2286;51.570;7.090;2023-02-01T01:30:24;5.70;99.90
4548;DHT22;2286;51.570;7.090;2023-02-01T01:32:52;5.80;99.90
4548;DHT22;2286;51.570;7.090;2023-02-01T01:35:19;5.80;99.90
4548;DHT22;2286;51.570;7.090;2023-02-01T01:37:46;5.80;42.80
4548;DHT22;2286;51.570;7.090;2023-02-01T01:40:13;5.80;88.20
4548;DHT22;2286;51.570;7.090;2023-02-01T01:42:41;5.80;99.90
4548;DHT22;2286;51.570;7.090;2023-02-01T01:45:20;5.80;99.90
4548;DHT22;2286;51.570;7.090;2023-02-01T01:47:50;5.70;99.90
4548;DHT22;2286;51.570;7.090;2023-02-01T01:50:22;5.70;1.00
4548;DHT22;2286;51.570;7.090;2023-02-01T01:52:51;5.70;1.00
4548;DHT22;2286;51.570;7.090;2023-02-01T01:55:22;5.80;1.00
4548;DHT22;2286;51.570;7.090;2023-02-01T01:57:53;5.80;1.00
4548;DHT22;2286;51.570;7.090;2023-02-01T02:00:23;5.80;1.00
4548;DHT22;2286;51.570;7.090;2023-02-01T02:02:54;5.80;1.00
4548;DHT22;2286;51.570;7.090;2023-02-01T02:05:23;5.70;1.00
4548;DHT22;2286;51.570;7.090;2023-02-01T02:07:53;5.80;1.00
4548;DHT22;2286;51.570;7.090;2023-02-01T02:10:23;5.80;1.00
4548;DHT22;2286;51.570;7.090;2023-02-01T02:13:10;5.80;1.00
4548;DHT22;2286;51.570;7.090;2023-02-01T02:15:45;5.80;1.00
4548;DHT22;2286;51.570;7.090;2023-02-01T02:18:15;5.80;1.00
4548;DHT22;2286;51.570;7.090;2023-02-01T02:20:58;5.90;99.90
4548;DHT22;2286;51.570;7.090;2023-02-01T02:29:54;5.80;99.90
4548;DHT22;2286;51.570;7.090;2023-02-01T02:32:53;5.80;99.90
4548;DHT22;2286;51.570;7.090;2023-02-01T02:35:30;5.80;99.90
4548;DHT22;2286;51.570;7.090;2023-02-01T02:38:09;5.90;99.90
4548;DHT22;2286;51.570;7.090;2023-02-01T02:40:45;5.90;99.90
4548;DHT22;2286;51.570;7.090;2023-02-01T02:43:21;5.80;99.90
4548;DHT22;2286;51.570;7.090;2023-02-01T02:46:07;5.80;1.00
4548;DHT22;2286;51.570;7.090;2023-02-01T02:49:00;5.90;1.00
4548;DHT22;2286;51.570;7.090;2023-02-01T02:51:32;5.80;1.00
4548;DHT22;2286;51.570;7.090;2023-02-01T02:54:20;5.80;1.00
4548;DHT22;2286;51.570;7.090;2023-02-01T02:57:08;5.70;13.40
4548;DHT22;2286;51.570;7.090;2023-02-01T02:59:56;5.70;1.00
4548;DHT22;2286;51.570;7.090;2023-02-01T03:02:41;5.70;1.00
4548;DHT22;2286;51.570;7.090;2023-02-01T03:05:32;5.60;18.30
4548;DHT22;2286;51.570;7.090;2023-02-01T03:08:08;5.60;1.00
4548;DHT22;2286;51.570;7.090;2023-02-01T03:10:42;5.50;35.60
4548;DHT22;2286;51.570;7.090;2023-02-01T03:13:13;5.60;1.00
4548;DHT22;2286;51.570;7.090;2023-02-01T03:15:45;5.60;1.00
4548;DHT22;2286;51.570;7.090;2023-02-01T03:18:18;5.60;1.00
4548;DHT22;2286;51.570;7.090;2023-02-01T03:20:49;5.60;1.00
4548;DHT22;2286;51.570;7.090;2023-02-01T03:23:22;5.60;99.90
4548;DHT22;2286;51.570;7.090;2023-02-01T03:25:52;5.60;1.00
4548;DHT22;2286;51.570;7.090;2023-02-01T03:28:23;5.60;99.90
4548;DHT22;2286;51.570;7.090;2023-02-01T03:30:53;5.60;99.90
4548;DHT22;2286;51.570;7.090;2023-02-01T03:33:23;5.50;99.90
4548;DHT22;2286;51.570;7.090;2023-02-01T03:35:57;5.50;99.90
4548;DHT22;2286;51.570;7.090;2023-02-01T03:38:30;5.50;99.90
4548;DHT22;2286;51.570;7.090;2023-02-01T03:41:03;5.60;99.90
4548;DHT22;2286;51.570;7.090;2023-02-01T03:43:42;5.50;99.90
4548;DHT22;2286;51.570;7.090;2023-02-01T03:46:17;5.60;99.90
4548;DHT22;2286;51.570;7.090;2023-02-01T03:48:48;5.60;99.90
4548;DHT22;2286;51.570;7.090;2023-02-01T03:51:17;5.60;99.90
4548;DHT22;2286;51.570;7.090;2023-02-01T03:53:47;5.50;1.00
4548;DHT22;2286;51.570;7.090;2023-02-01T03:56:16;5.50;1.00
4548;DHT22;2286;51.570;7.090;2023-02-01T03:58:44;5.50;1.00
4548;DHT22;2286;51.570;7.090;2023-02-01T04:01:24;5.50;16.80
4548;DHT22;2286;51.570;7.090;2023-02-01T04:03:51;5.50;1.00
4548;DHT22;2286;51.570;7.090;2023-02-01T04:06:18;5.60;23.40
4548;DHT22;2286;51.570;7.090;2023-02-01T04:08:46;5.60;50.20
4548;DHT22;2286;51.570;7.090;2023-02-01T04:11:13;5.60;99.90
4548;DHT22;2286;51.570;7.090;2023-02-01T04:13:40;5.60;99.90
4548;DHT22;2286;51.570;7.090;2023-02-01T04:16:07;5.60;99.90
4548;DHT22;2286;51.570;7.090;2023-02-01T04:18:34;5.70;99.90
4548;DHT22;2286;51.570;7.090;2023-02-01T04:21:00;5.70;99.90
4548;DHT22;2286;51.570;7.090;2023-02-01T04:23:28;5.70;99.90
4548;DHT22;2286;51.570;7.090;2023-02-01T04:26:00;5.70;99.90
4548;DHT22;2286;51.570;7.090;2023-02-01T04:28:27;5.70;1.00
4548;DHT22;2286;51.570;7.090;2023-02-01T04:30:54;5.70;99.90
4548;DHT22;2286;51.570;7.090;2023-02-01T04:33:21;5.70;1.00
4548;DHT22;2286;51.570;7.090;2023-02-01T04:35:48;5.70;1.00
4548;DHT22;2286;51.570;7.090;2023-02-01T04:38:15;5.70;1.00
4548;DHT22;2286;51.570;7.090;2023-02-01T04:40:42;5.60;1.00
4548;DHT22;2286;51.570;7.090;2023-02-01T04:43:10;5.70;1.00
4548;DHT22;2286;51.570;7.090;2023-02-01T04:45:37;5.70;1.00
4548;DHT22;2286;51.570;7.090;2023-02-01T04:48:04;5.70;1.00
4548;DHT22;2286;51.570;7.090;2023-02-01T04:50:31;5.70;1.00
4548;DHT22;2286;51.570;7.090;2023-02-01T04:52:58;5.70;1.00
4548;DHT22;2286;51.570;7.090;2023-02-01T04:55:25;5.70;32.00
4548;DHT22;2286;51.570;7.090;2023-02-01T04:57:51;5.70;99.90
4548;DHT22;2286;51.570;7.090;2023-02-01T05:00:20;5.60;99.90
4548;DHT22;2286;51.570;7.090;2023-02-01T05:02:47;5.60;99.90
4548;DHT22;2286;51.570;7.090;2023-02-01T05:05:14;5.60;99.90
4548;DHT22;2286;51.570;7.090;2023-02-01T05:07:41;5.60;1.00
4548;DHT22;2286;51.570;7.090;2023-02-01T05:10:09;5.60;1.00
4548;DHT22;2286;51.570;7.090;2023-02-01T05:12:36;5.50;29.10
4548;DHT22;2286;51.570;7.090;2023-02-01T05:15:21;5.40;99.90
4548;DHT22;2286;51.570;7.090;2023-02-01T05:17:48;5.40;1.00
4548;DHT22;2286;51.570;7.090;2023-02-01T05:20:15;5.50;1.00
4548;DHT22;2286;51.570;7.090;2023-02-01T05:22:41;5.50;1.00
4548;DHT22;2286;51.570;7.090;2023-02-01T05:25:08;5.50;1.00
4548;DHT22;2286;51.570;7.090;2023-02-01T05:27:35;5.50;1.00
4548;DHT22;2286;51.570;7.090;2023-02-01T05:30:03;5.60;1.00
4548;DHT22;2286;51.570;7.090;2023-02-01T05:32:31;5.50;1.00
4548;DHT22;2286;51.570;7.090;2023-02-01T05:34:58;5.50;1.00
4548;DHT22;2286;51.570;7.090;2023-02-01T05:37:25;5.50;1.00
4548;DHT22;2286;51.570;7.090;2023-02-01T05:39:52;5.40;1.00
4548;DHT22;2286;51.570;7.090;2023-02-01T05:42:19;5.40;99.90
4548;DHT22;2286;51.570;7.090;2023-02-01T05:44:45;5.40;99.90
4548;DHT22;2286;51.570;7.090;2023-02-01T05:47:12;5.40;99.90
4548;DHT22;2286;51.570;7.090;2023-02-01T05:49:40;5.40;99.90
4548;DHT22;2286;51.570;7.090;2023-02-01T05:52:07;5.30;99.90
4548;DHT22;2286;51.570;7.090;2023-02-01T05:54:34;5.30;1.00
4548;DHT22;2286;51.570;7.090;2023-02-01T05:57:01;5.30;12.20
4548;DHT22;2286;51.570;7.090;2023-02-01T05:59:28;5.30;84.00
4548;DHT22;2286;51.570;7.090;2023-02-01T06:01:54;5.30;7.30
4548;DHT22;2286;51.570;7.090;2023-02-01T06:04:21;5.30;1.00
4548;DHT22;2286;51.570;7.090;2023-02-01T06:06:49;5.40;1.00
4548;DHT22;2286;51.570;7.090;2023-02-01T06:09:16;5.40;1.00
4548;DHT22;2286;51.570;7.090;2023-02-01T06:11:43;5.40;1.00
4548;DHT22;2286;51.570;7.090;2023-02-01T06:14:10;5.40;1.00
4548;DHT22;2286;51.570;7.090;2023-02-01T06:16:37;5.40;1.00
4548;DHT22;2286;51.570;7.090;2023-02-01T06:19:04;5.40;1.00
4548;DHT22;2286;51.570;7.090;2023-02-01T06:21:30;5.40;1.00
4548;DHT22;2286;51.570;7.090;2023-02-01T06:24:00;5.40;1.00
4548;DHT22;2286;51.570;7.090;2023-02-01T06:26:26;5.40;1.00
4548;DHT22;2286;51.570;7.090;2023-02-01T06:28:54;5.40;1.00
4548;DHT22;2286;51.570;7.090;2023-02-01T06:31:22;5.40;1.00
4548;DHT22;2286;51.570;7.090;2023-02-01T06:33:51;5.50;1.00
4548;DHT22;2286;51.570;7.090;2023-02-01T06:36:18;5.40;1.00
4548;DHT22;2286;51.570;7.090;2023-02-01T06:38:46;5.50;1.00
4548;DHT22;2286;51.570;7.090;2023-02-01T06:41:15;5.50;99.90
4548;DHT22;2286;51.570;7.090;2023-02-01T06:43:41;5.50;99.90
4548;DHT22;2286;51.570;7.090;2023-02-01T06:46:12;5.50;99.90
4548;DHT22;2286;51.570;7.090;2023-02-01T06:48:39;5.50;99.90
4548;DHT22;2286;51.570;7.090;2023-02-01T06:51:06;5.50;99.90
4548;DHT22;2286;51.570;7.090;2023-02-01T06:53:42;5.50;99.90
4548;DHT22;2286;51.570;7.090;2023-02-01T06:56:09;5.50;99.90
4548;DHT22;2286;51.570;7.090;2023-02-01T06:58:37;5.50;99.90
4548;DHT22;2286;51.570;7.090;2023-02-01T07:01:06;5.50;99.90
4548;DHT22;2286;51.570;7.090;2023-02-01T07:03:33;5.50;99.90
4548;DHT22;2286;51.570;7.090;2023-02-01T07:06:00;5.50;99.90
4548;DHT22;2286;51.570;7.090;2023-02-01T07:08:27;5.50;99.90
4548;DHT22;2286;51.570;7.090;2023-02-01T07:10:54;5.50;99.90
4548;DHT22;2286;51.570;7.090;2023-02-01T07:13:21;5.50;99.90
4548;DHT22;2286;51.570;7.090;2023-02-01T07:15:49;5.60;99.90
4548;DHT22;2286;51.570;7.090;2023-02-01T07:18:16;5.60;99.90
4548;DHT22;2286;51.570;7.090;2023-02-01T07:20:43;5.60;99.90
4548;DHT22;2286;51.570;7.090;2023-02-01T07:23:10;5.60;99.90
4548;DHT22;2286;51.570;7.090;2023-02-01T07:25:37;5.60;4.60
4548;DHT22;2286;51.570;7.090;2023-02-01T07:28:03;5.60;18.00
4548;DHT22;2286;51.570;7.090;2023-02-01T07:30:30;5.60;99.90
4548;DHT22;2286;51.570;7.090;2023-02-01T07:32:58;5.60;99.90
4548;DHT22;2286;51.570;7.090;2023-02-01T07:35:26;5.60;99.90
4548;DHT22;2286;51.570;7.090;2023-02-01T07:37:53;5.60;99.90
4548;DHT22;2286;51.570;7.090;2023-02-01T07:40:20;5.60;99.90
4548;DHT22;2286;51.570;7.090;2023-02-01T07:42:50;5.60;99.90
4548;DHT22;2286;51.570;7.090;2023-02-01T07:45:17;5.60;99.90
4548;DHT22;2286;51.570;7.090;2023-02-01T07:47:45;5.70;99.90
4548;DHT22;2286;51.570;7.090;2023-02-01T07:50:13;5.70;99.90
4548;DHT22;2286;51.570;7.090;2023-02-01T07:52:40;5.60;99.90
4548;DHT22;2286;51.570;7.090;2023-02-01T07:55:08;5.60;99.90
4548;DHT22;2286;51.570;7.090;2023-02-01T07:57:35;5.70;99.90
4548;DHT22;2286;51.570;7.090;2023-02-01T08:00:02;5.70;1.00
4548;DHT22;2286;51.570;7.090;2023-02-01T08:02:47;5.70;1.00
4548;DHT22;2286;51.570;7.090;2023-02-01T08:05:15;5.60;1.00
4548;DHT22;2286;51.570;7.090;2023-02-01T08:07:42;5.60;1.00
4548;DHT22;2286;51.570;7.090;2023-02-01T08:10:09;5.70;1.00
4548;DHT22;2286;51.570;7.090;2023-02-01T08:12:37;5.70;1.00
4548;DHT22;2286;51.570;7.090;2023-02-01T08:15:04;5.70;1.00
4548;DHT22;2286;51.570;7.090;2023-02-01T08:17:31;5.70;2.50
4548;DHT22;2286;51.570;7.090;2023-02-01T08:19:58;5.70;89.90
4548;DHT22;2286;51.570;7.090;2023-02-01T08:22:31;5.70;99.90
4548;DHT22;2286;51.570;7.090;2023-02-01T08:24:58;5.70;99.90
4548;DHT22;2286;51.570;7.090;2023-02-01T08:27:26;5.70;99.90
4548;DHT22;2286;51.570;7.090;2023-02-01T08:29:53;5.70;99.90
4548;DHT22;2286;51.570;7.090;2023-02-01T08:32:20;5.70;99.90
4548;DHT22;2286;51.570;7.090;2023-02-01T08:34:47;5.70;99.90
4548;DHT22;2286;51.570;7.090;2023-02-01T08:37:14;5.80;99.90
4548;DHT22;2286;51.570;7.090;2023-02-01T08:39:42;5.80;99.90
4548;DHT22;2286;51.570;7.090;2023-02-01T08:42:10;5.90;99.90
4548;DHT22;2286;51.570;7.090;2023-02-01T08:44:54;5.90;1.00
4548;DHT22;2286;51.570;7.090;2023-02-01T08:47:21;5.90;1.00
4548;DHT22;2286;51.570;7.090;2023-02-01T08:49:47;5.90;1.00
4548;DHT22;2286;51.570;7.090;2023-02-01T08:52:14;6.00;1.00
4548;DHT22;2286;51.570;7.090;2023-02-01T08:54:42;6.00;99.90
4548;DHT22;2286;51.570;7.090;2023-02-01T08:57:09;6.10;99.90
4548;DHT22;2286;51.570;7.090;2023-02-01T08:59:36;6.10;25.60
4548;DHT22;2286;51.570;7.090;2023-02-01T09:02:03;6.10;99.90
4548;DHT22;2286;51.570;7.090;2023-02-01T09:04:29;6.00;1.00
4548;DHT22;2286;51.570;7.090;2023-02-01T09:06:56;6.00;99.90
4548;DHT22;2286;51.570;7.090;2023-02-01T09:09:23;6.00;99.90
4548;DHT22;2286;51.570;7.090;2023-02-01T09:11:52;6.00;99.90
4548;DHT22;2286;51.570;7.090;2023-02-01T09:14:18;6.00;99.90
4548;DHT22;2286;51.570;7.090;2023-02-01T09:16:45;6.00;99.90
4548;DHT22;2286;51.570;7.090;2023-02-01T09:19:12;6.10;99.90
4548;DHT22;2286;51.570;7.090;2023-02-01T09:21:39;6.20;1.00
4548;DHT22;2286;51.570;7.090;2023-02-01T09:24:06;6.20;99.90
4548;DHT22;2286;51.570;7.090;2023-02-01T09:26:33;6.20;99.90
4548;DHT22;2286;51.570;7.090;2023-02-01T09:29:01;6.20;99.90
4548;DHT22;2286;51.570;7.090;2023-02-01T09:31:29;6.10;99.90
4548;DHT22;2286;51.570;7.090;2023-02-01T09:33:56;6.20;99.90
4548;DHT22;2286;51.570;7.090;2023-02-01T09:36:23;6.20;99.90
4548;DHT22;2286;51.570;7.090;2023-02-01T09:38:50;6.20;99.90
4548;DHT22;2286;51.570;7.090;2023-02-01T09:41:37;6.30;59.90
4548;DHT22;2286;51.570;7.090;2023-02-01T09:44:17;6.30;1.00
4548;DHT22;2286;51.570;7.090;2023-02-01T09:46:53;6.30;1.00
4548;DHT22;2286;51.570;7.090;2023-02-01T09:49:26;6.30;1.00
4548;DHT22;2286;51.570;7.090;2023-02-01T09:51:54;6.30;1.00
4548;DHT22;2286;51.570;7.090;2023-02-01T09:54:24;6.30;1.00
4548;DHT22;2286;51.570;7.090;2023-02-01T09:59:34;6.40;99.90
4548;DHT22;2286;51.570;7.090;2023-02-01T10:02:12;6.50;95.00
4548;DHT22;2286;51.570;7.090;2023-02-01T10:04:41;6.60;1.00
4548;DHT22;2286;51.570;7.090;2023-02-01T10:07:17;6.60;1.00
4548;DHT22;2286;51.570;7.090;2023-02-01T10:10:00;6.60;99.90
4548;DHT22;2286;51.570;7.090;2023-02-01T10:12:42;6.60;99.90
4548;DHT22;2286;51.570;7.090;2023-02-01T10:15:24;6.60;99.90
4548;DHT22;2286;51.570;7.090;2023-02-01T10:18:09;6.70;99.90
4548;DHT22;2286;51.570;7.090;2023-02-01T10:20:51;6.70;99.90
4548;DHT22;2286;51.570;7.090;2023-02-01T10:26:18;6.60;1.00
4548;DHT22;2286;51.570;7.090;2023-02-01T10:28:49;6.70;99.90
4548;DHT22;2286;51.570;7.090;2023-02-01T10:31:18;6.70;1.00
4548;DHT22;2286;51.570;7.090;2023-02-01T10:33:50;6.60;1.00
4548;DHT22;2286;51.570;7.090;2023-02-01T10:36:23;6.60;99.90
4548;DHT22;2286;51.570;7.090;2023-02-01T10:38:53;6.70;1.00
4548;DHT22;2286;51.570;7.090;2023-02-01T10:41:21;6.70;1.00
4548;DHT22;2286;51.570;7.090;2023-02-01T10:43:54;6.70;1.00
4548;DHT22;2286;51.570;7.090;2023-02-01T10:46:23;6.70;1.00
4548;DHT22;2286;51.570;7.090;2023-02-01T10:48:52;6.70;1.00
4548;DHT22;2286;51.570;7.090;2023-02-01T10:51:23;6.70;1.00
4548;DHT22;2286;51.570;7.090;2023-02-01T10:53:54;6.80;1.00
4548;DHT22;2286;51.570;7.090;2023-02-01T10:56:23;6.80;99.90
4548;DHT22;2286;51.570;7.090;2023-02-01T10:58:50;6.80;99.90
4548;DHT22;2286;51.570;7.090;2023-02-01T11:01:21;6.80;1.00
4548;DHT22;2286;51.570;7.090;2023-02-01T11:03:54;6.80;1.00
4548;DHT22;2286;51.570;7.090;2023-02-01T11:06:27;6.70;1.00
4548;DHT22;2286;51.570;7.090;2023-02-01T11:08:55;6.80;1.00
4548;DHT22;2286;51.570;7.090;2023-02-01T11:11:23;6.80;1.00
4548;DHT22;2286;51.570;7.090;2023-02-01T11:13:55;6.90;99.90
4548;DHT22;2286;51.570;7.090;2023-02-01T11:16:30;7.00;99.90
4548;DHT22;2286;51.570;7.090;2023-02-01T11:19:00;7.00;99.90
4548;DHT22;2286;51.570;7.090;2023-02-01T11:21:27;7.00;99.90
4548;DHT22;2286;51.570;7.090;2023-02-01T11:23:54;7.00;99.90
4548;DHT22;2286;51.570;7.090;2023-02-01T11:26:23;7.10;99.90
4548;DHT22;2286;51.570;7.090;2023-02-01T11:28:57;7.20;99.90
4548;DHT22;2286;51.570;7.090;2023-02-01T11:31:25;7.30;94.30
4548;DHT22;2286;51.570;7.090;2023-02-01T11:33:55;7.30;1.00
4548;DHT22;2286;51.570;7.090;2023-02-01T11:36:27;7.20;99.90
4548;DHT22;2286;51.570;7.090;2023-02-01T11:39:08;7.10;99.90
4548;DHT22;2286;51.570;7.090;2023-02-01T11:41:41;7.10;99.90
4548;DHT22;2286;51.570;7.090;2023-02-01T11:44:20;7.20;98.80
4548;DHT22;2286;51.570;7.090;2023-02-01T11:46:48;7.20;99.90
4548;DHT22;2286;51.570;7.090;2023-02-01T11:49:21;7.10;99.90
4548;DHT22;2286;51.570;7.090;2023-02-01T11:52:04;7.00;1.00
4548;DHT22;2286;51.570;7.090;2023-02-01T11:54:50;6.70;99.90
4548;DHT22;2286;51.570;7.090;2023-02-01T11:57:30;6.40;1.00
4548;DHT22;2286;51.570;7.090;2023-02-01T12:00:10;6.20;1.00
4548;DHT22;2286;51.570;7.090;2023-02-01T12:03:06;6.10;24.10
4548;DHT22;2286;51.570;7.090;2023-02-01T12:05:44;6.00;99.90
4548;DHT22;2286;51.570;7.090;2023-02-01T12:08:32;5.90;99.90
4548;DHT22;2286;51.570;7.090;2023-02-01T12:11:18;5.90;99.90
4548;DHT22;2286;51.570;7.090;2023-02-01T12:13:58;5.90;99.90
4548;DHT22;2286;51.570;7.090;2023-02-01T12:16:31;5.90;99.90
4548;DHT22;2286;51.570;7.090;2023-02-01T12:19:21;5.90;99.90
4548;DHT22;2286;51.570;7.090;2023-02-01T12:22:03;5.90;99.90
4548;DHT22;2286;51.570;7.090;2023-02-01T12:24:48;5.90;99.90
4548;DHT22;2286;51.570;7.090;2023-02-01T12:27:46;6.00;99.90
4548;DHT22;2286;51.570;7.090;2023-02-01T12:33:31;6.10;99.90
4548;DHT22;2286;51.570;7.090;2023-02-01T12:36:09;6.20;1.00
4548;DHT22;2286;51.570;7.090;2023-02-01T12:38:46;6.30;1.00
4548;DHT22;2286;51.570;7.090;2023-02-01T12:41:44;6.30;95.10
4548;DHT22;2286;51.570;7.090;2023-02-01T12:44:24;6.40;99.90
4548;DHT22;2286;51.570;7.090;2023-02-01T12:46:55;6.30;28.50
4548;DHT22;2286;51.570;7.090;2023-02-01T12:49:29;6.30;99.90
4548;DHT22;2286;51.570;7.090;2023-02-01T12:52:01;6.40;99.90
4548;DHT22;2286;51.570;7.090;2023-02-01T12:54:34;6.50;99.90
4548;DHT22;2286;51.570;7.090;2023-02-01T12:57:06;6.40;1.00
4548;DHT22;2286;51.570;7.090;2023-02-01T12:59:39;6.40;1.00
4548;DHT22;2286;51.570;7.090;2023-02-01T13:02:14;6.40;1.00
4548;DHT22;2286;51.570;7.090;2023-02-01T13:04:49;6.30;1.00
4548;DHT22;2286;51.570;7.090;2023-02-01T13:07:21;6.40;63.60
4548;DHT22;2286;51.570;7.090;2023-02-01T13:09:52;6.30;99.90
4548;DHT22;2286;51.570;7.090;2023-02-01T13:12:25;6.40;99.90
4548;DHT22;2286;51.570;7.090;2023-02-01T13:14:57;6.40;1.00
4548;DHT22;2286;51.570;7.090;2023-02-01T13:17:28;6.50;49.80
4548;DHT22;2286;51.570;7.090;2023-02-01T13:20:00;6.50;99.90
4548;DHT22;2286;51.570;7.090;2023-02-01T13:22:31;6.50;99.90
4548;DHT22;2286;51.570;7.090;2023-02-01T13:25:00;6.50;1.00
4548;DHT22;2286;51.570;7.090;2023-02-01T13:27:31;6.60;99.90
4548;DHT22;2286;51.570;7.090;2023-02-01T13:30:00;6.50;99.90
4548;DHT22;2286;51.570;7.090;2023-02-01T13:33:00;6.60;1.00
4548;DHT22;2286;51.570;7.090;2023-02-01T13:39:02;6.60;1.00
4548;DHT22;2286;51.570;7.090;2023-02-01T13:41:33;6.70;1.00
4548;DHT22;2286;51.570;7.090;2023-02-01T13:44:09;6.70;1.00
4548;DHT22;2286;51.570;7.090;2023-02-01T13:46:41;6.80;99.90
4548;DHT22;2286;51.570;7.090;2023-02-01T13:49:18;6.80;1.00
4548;DHT22;2286;51.570;7.090;2023-02-01T13:51:49;6.90;99.90
4548;DHT22;2286;51.570;7.090;2023-02-01T13:54:26;6.90;1.00
4548;DHT22;2286;51.570;7.090;2023-02-01T13:56:54;6.90;1.00
4548;DHT22;2286;51.570;7.090;2023-02-01T13:59:50;7.00;1.00
4548;DHT22;2286;51.570;7.090;2023-02-01T14:02:36;7.00;99.90
4548;DHT22;2286;51.570;7.090;2023-02-01T14:05:04;7.00;1.00
4548;DHT22;2286;51.570;7.090;2023-02-01T14:07:31;7.00;99.90
4548;DHT22;2286;51.570;7.090;2023-02-01T14:09:58;7.00;99.90
4548;DHT22;2286;51.570;7.090;2023-02-01T14:12:48;7.00;1.00
4548;DHT22;2286;51.570;7.090;2023-02-01T14:15:24;7.10;1.00
4548;DHT22;2286;51.570;7.090;2023-02-01T14:17:51;7.00;1.00
4548;DHT22;2286;51.570;7.090;2023-02-01T14:20:46;7.10;1.00
4548;DHT22;2286;51.570;7.090;2023-02-01T14:23:23;7.10;1.00
4548;DHT22;2286;51.570;7.090;2023-02-01T14:26:21;7.10;99.90
4548;DHT22;2286;51.570;7.090;2023-02-01T14:28:59;7.10;1.00
4548;DHT22;2286;51.570;7.090;2023-02-01T14:31:44;7.10;1.00
4548;DHT22;2286;51.570;7.090;2023-02-01T14:34:19;7.10;99.90
4548;DHT22;2286;51.570;7.090;2023-02-01T14:36:50;7.00;99.90
4548;DHT22;2286;51.570;7.090;2023-02-01T14:39:35;7.00;1.00
4548;DHT22;2286;51.570;7.090;2023-02-01T14:42:12;7.10;99.90
4548;DHT22;2286;51.570;7.090;2023-02-01T14:44:41;7.10;1.00
4548;DHT22;2286;51.570;7.090;2023-02-01T14:50:22;7.20;1.00
4548;DHT22;2286;51.570;7.090;2023-02-01T14:52:58;7.20;99.90
4548;DHT22;2286;51.570;7.090;2023-02-01T14:55:30;7.20;1.00
4548;DHT22;2286;51.570;7.090;2023-02-01T14:58:03;7.10;1.00
4548;DHT22;2286;51.570;7.090;2023-02-01T15:00:32;7.10;1.00
4548;DHT22;2286;51.570;7.090;2023-02-01T15:03:20;7.10;1.00
4548;DHT22;2286;51.570;7.090;2023-02-01T15:05:54;7.00;1.00
4548;DHT22;2286;51.570;7.090;2023-02-01T15:08:26;7.00;1.00
4548;DHT22;2286;51.570;7.090;2023-02-01T15:10:55;7.00;1.00
4548;DHT22;2286;51.570;7.090;2023-02-01T15:13:25;7.00;99.90
4548;DHT22;2286;51.570;7.090;2023-02-01T15:16:04;7.00;1.00
4548;DHT22;2286;51.570;7.090;2023-02-01T15:18:32;7.00;1.00
4548;DHT22;2286;51.570;7.090;2023-02-01T15:21:00;7.00;1.00
4548;DHT22;2286;51.570;7.090;2023-02-01T15:23:28;7.00;1.00
4548;DHT22;2286;51.570;7.090;2023-02-01T15:25:55;7.00;1.00
4548;DHT22;2286;51.570;7.090;2023-02-01T15:28:22;7.10;1.00
4548;DHT22;2286;51.570;7.090;2023-02-01T15:30:55;7.00;99.90
4548;DHT22;2286;51.570;7.090;2023-02-01T15:33:24;7.10;99.90
4548;DHT22;2286;51.570;7.090;2023-02-01T15:35:53;7.10;66.20
4548;DHT22;2286;51.570;7.090;2023-02-01T15:38:32;7.10;99.90
4548;DHT22;2286;51.570;7.090;2023-02-01T15:41:03;7.10;1.00
4548;DHT22;2286;51.570;7.090;2023-02-01T15:43:32;7.20;99.90
4548;DHT22;2286;51.570;7.090;2023-02-01T15:46:02;7.20;1.00
4548;DHT22;2286;51.570;7.090;2023-02-01T15:48:36;7.30;1.00
4548;DHT22;2286;51.570;7.090;2023-02-01T15:51:04;7.30;1.00
4548;DHT22;2286;51.570;7.090;2023-02-01T15:53:31;7.30;1.00
4548;DHT22;2286;51.570;7.090;2023-02-01T15:56:01;7.30;1.00
4548;DHT22;2286;51.570;7.090;2023-02-01T15:58:29;7.30;99.90
4548;DHT22;2286;51.570;7.090;2023-02-01T16:00:59;7.40;99.90
4548;DHT22;2286;51.570;7.090;2023-02-01T16:03:35;7.40;99.90
4548;DHT22;2286;51.570;7.090;2023-02-01T16:06:04;7.40;99.90
4548;DHT22;2286;51.570;7.090;2023-02-01T16:08:32;7.40;99.90
4548;DHT22;2286;51.570;7.090;2023-02-01T16:11:13;7.40;1.00
4548;DHT22;2286;51.570;7.090;2023-02-01T16:13:40;7.40;99.90
4548;DHT22;2286;51.570;7.090;2023-02-01T16:16:07;7.40;99.90
4548;DHT22;2286;51.570;7.090;2023-02-01T16:18:40;7.40;99.90
4548;DHT22;2286;51.570;7.090;2023-02-01T16:21:07;7.30;1.00
4548;DHT22;2286;51.570;7.090;2023-02-01T16:23:34;7.40;99.90
4548;DHT22;2286;51.570;7.090;2023-02-01T16:26:01;7.40;99.90
4548;DHT22;2286;51.570;7.090;2023-02-01T16:28:28;7.40;99.90
4548;DHT22;2286;51.570;7.090;2023-02-01T16:30:55;7.40;1.00
4548;DHT22;2286;51.570;7.090;2023-02-01T16:33:23;7.40;99.90
4548;DHT22;2286;51.570;7.090;2023-02-01T16:35:52;7.20;38.30
4548;DHT22;2286;51.570;7.090;2023-02-01T16:38:22;7.10;99.90
4548;DHT22;2286;51.570;7.090;2023-02-01T16:40:50;7.00;1.00
4548;DHT22;2286;51.570;7.090;2023-02-01T16:43:18;6.90;99.90
4548;DHT22;2286;51.570;7.090;2023-02-01T16:45:46;6.90;99.90
4548;DHT22;2286;51.570;7.090;2023-02-01T16:48:19;6.90;99.90
4548;DHT22;2286;51.570;7.090;2023-02-01T16:50:47;6.80;1.00
4548;DHT22;2286;51.570;7.090;2023-02-01T16:53:17;6.80;99.90
4548;DHT22;2286;51.570;7.090;2023-02-01T16:55:44;6.80;99.90
4548;DHT22;2286;51.570;7.090;2023-02-01T16:58:13;6.70;1.00
4548;DHT22;2286;51.570;7.090;2023-02-01T17:00:40;6.60;54.90
4548;DHT22;2286;51.570;7.090;2023-02-01T17:03:07;6.00;47.10
4548;DHT22;2286;51.570;7.090;2023-02-01T17:05:34;5.70;99.90
4548;DHT22;2286;51.570;7.090;2023-02-01T17:08:04;5.50;99.90
4548;DHT22;2286;51.570;7.090;2023-02-01T17:10:33;5.40;99.90
4548;DHT22;2286;51.570;7.090;2023-02-01T17:13:00;5.40;99.90